• Join FlightAware (Why Join?)
  • Login
  • US Flag 
12:01PM EST


 

Airport Tracker/Info


-or-


 

Live Flight TrackerFlight Track Log ✈ N8440B ✈ 18-Aug-2013 ✈ KASW - KDUH

Flight Track Log - Related Links

Times and Time Zones

All times are in EDT time to prevent confusion due to time zone crossing. See the N8440B flight status page for this flight to view local times or setup timezone preferences in your user account.

Time Position Orientation Groundspeed Altitude Reporting Facility
EDT Latitude Longitude Course Direction KTS MPH feet Rate Location/Type
03:49PM 41.3244 -85.6867 74° East 94 108 4,500  Level Chicago Center
03:50PM 41.3328 -85.6481 74° East 92 106 5,200 480 Climbing Chicago Center
03:51PM 41.3394 -85.6128 76° East 94 108 5,500 120 Climbing Chicago Center
03:52PM 41.3472 -85.5700 76° East 105 121 5,500  Level Chicago Center
03:53PM 41.3350 -85.5669 74° East  Level Estimated
03:53PM 41.3558 -85.5247 76° East 117 135 5,500  Level Chicago Center
03:54PM 41.3450 -85.5214 74° East  Level Estimated
03:54PM 41.3622 -85.4800 79° East 122 140 5,500  Level Chicago Center
03:55PM 41.3697 -85.4258 80° East 124 143 5,500  Level Chicago Center
03:56PM 41.3764 -85.3811 79° East 124 143 5,500  Level Chicago Center
03:57PM 41.3819 -85.3347 81° East 126 145 5,500  Level Chicago Center
03:58PM 41.3897 -85.2917 76° East 124 143 5,500  Level Chicago Center
03:59PM 41.3961 -85.2478 79° East 122 140 5,500  Level Chicago Center
04:00PM 41.4050 -85.1944 77° East 123 142 5,500  Level Chicago Center
04:01PM 41.4156 -85.1514 72° East 123 142 5,500  Level Chicago Center
04:02PM 41.4281 -85.1092 68° East 123 142 5,500  Level Chicago Center
04:03PM 41.4411 -85.0683 67° East 122 140 5,500  Level Chicago Center
04:04PM 41.4539 -85.0264 68° East 122 140 5,500  Level Chicago Center
04:05PM 41.4675 -84.9839 67° East 124 143 5,500  Level Chicago Center
04:06PM 41.4842 -84.9322 67° East 125 144 5,500  Level Chicago Center
04:07PM 41.4967 -84.8906 68° East 124 143 5,500  Level Chicago Center
04:08PM 41.5089 -84.8478 69° East 124 143 5,500  Level Chicago Center
04:09PM 41.5164 -84.8044 77° East 123 142 5,500  Level Chicago Center
04:10PM 41.5178 -84.7575 88° East 125 144 5,500  Level Chicago Center
04:12PM 41.5197 -84.7036 87° East 123 142 5,500  Level Chicago Center
04:13PM 41.5233 -84.6592 84° East 122 140 5,500  Level Chicago Center
04:14PM 41.5283 -84.6161 81° East 120 138 5,500  Level Chicago Center
04:15PM 41.5364 -84.5722 76° East 120 138 5,500  Level Chicago Center
04:16PM 41.5478 -84.5306 70° East 120 138 5,500  Level Chicago Center
04:17PM 41.5572 -84.4875 74° East 120 138 5,500 -180 Level Chicago Center
04:18PM 41.5711 -84.4353 70° East 122 140 5,200 -240 Descending Chicago Center
04:19PM 41.5842 -84.3919 68° East 124 143 5,100 -240 Descending Chicago Center
04:20PM 41.5994 -84.3492 64° Northeast 126 145 4,800 -300 Descending Chicago Center